createdAt,value
2019-01-11T00:02:45.799Z,101088.22
2019-01-11T00:07:49.590Z,101083.27
2019-01-11T00:12:53.392Z,101090.81
2019-01-11T00:17:57.178Z,101085.93
2019-01-11T00:23:01.466Z,101088.02
2019-01-11T00:28:05.272Z,101085.47
2019-01-11T00:33:09.049Z,101076.74
2019-01-11T00:38:12.845Z,101072.62
2019-01-11T00:43:16.742Z,101072.31
2019-01-11T00:48:20.549Z,101072.31
2019-01-11T00:53:24.354Z,101064.47
2019-01-11T00:58:28.144Z,101064.47
2019-01-11T01:03:31.940Z,101051.97
2019-01-11T01:08:35.736Z,101058.49
2019-01-11T01:13:39.529Z,101054.94
2019-01-11T01:18:43.342Z,101055.12
2019-01-11T01:23:47.135Z,101050.73
2019-01-11T01:28:50.929Z,101045.06
2019-01-11T01:33:54.719Z,101046.03
2019-01-11T01:38:58.514Z,101044.78
2019-01-11T01:44:02.306Z,101038.58
2019-01-11T01:49:06.096Z,101039.20
2019-01-11T01:54:09.899Z,101039.20
2019-01-11T01:59:13.682Z,101036.09
2019-01-11T02:04:17.501Z,101027.64
2019-01-11T02:09:21.361Z,101027.64
2019-01-11T02:14:25.167Z,101026.53
2019-01-11T02:19:32.960Z,101017.17
2019-01-11T02:24:34.524Z,101019.50
2019-01-11T02:29:38.306Z,101023.24
2019-01-11T02:34:42.083Z,101026.42
2019-01-11T02:39:45.873Z,101021.04
2019-01-11T02:44:49.719Z,101021.04
2019-01-11T02:49:55.017Z,101020.55
2019-01-11T02:54:59.075Z,101005.88
2019-01-11T03:00:03.117Z,100996.95
2019-01-11T03:05:07.125Z,100993.89
2019-01-11T03:10:14.050Z,100992.66
2019-01-11T03:15:18.379Z,100978.73
2019-01-11T03:20:22.175Z,100973.84
2019-01-11T03:25:25.955Z,100969.44
2019-01-11T03:30:29.732Z,100969.44
2019-01-11T03:35:33.545Z,100959.44
2019-01-11T03:40:37.319Z,100955.81
2019-01-11T03:45:41.135Z,100941.39
2019-01-11T03:50:44.930Z,100949.83
2019-01-11T03:55:48.709Z,100933.57
2019-01-11T04:00:52.503Z,100933.57
2019-01-11T04:05:56.317Z,100936.50
2019-01-11T04:11:00.305Z,100937.91
2019-01-11T04:16:04.100Z,100936.88
2019-01-11T04:21:07.875Z,100914.32
2019-01-11T04:26:11.659Z,100911.47
2019-01-11T04:31:15.473Z,100913.72
2019-01-11T04:36:19.274Z,100914.56
2019-01-11T04:41:23.061Z,100903.91
2019-01-11T04:46:26.910Z,100895.66
2019-01-11T04:51:30.696Z,100898.00
2019-01-11T04:56:34.495Z,100898.00
2019-01-11T05:01:38.280Z,100902.09
2019-01-11T05:06:42.111Z,100888.16
2019-01-11T05:11:45.904Z,100885.05
2019-01-11T05:16:49.681Z,100885.05
2019-01-11T05:21:53.471Z,100881.45
2019-01-11T05:26:57.280Z,100881.45
2019-01-11T05:32:01.066Z,100865.67
2019-01-11T05:37:04.871Z,100865.67
2019-01-11T05:42:08.671Z,100851.99
2019-01-11T05:47:12.541Z,100843.28
2019-01-11T05:52:16.336Z,100843.28
2019-01-11T05:57:20.130Z,100838.99
2019-01-11T06:02:23.930Z,100826.32
2019-01-11T06:07:30.914Z,100824.72
2019-01-11T06:12:34.742Z,100812.35
2019-01-11T06:17:38.525Z,100812.55
2019-01-11T06:22:42.345Z,100810.19
2019-01-11T06:27:46.143Z,100812.31
2019-01-11T06:32:49.954Z,100803.78
2019-01-11T06:37:53.755Z,100792.50
2019-01-11T06:43:03.352Z,100792.50
2019-01-11T06:48:03.114Z,100790.78
2019-01-11T06:53:06.914Z,100795.03
2019-01-11T06:58:10.729Z,100791.71
2019-01-11T07:03:14.537Z,100785.19
2019-01-11T07:08:18.367Z,100779.09
2019-01-11T07:13:22.190Z,100784.19
2019-01-11T07:18:25.994Z,100786.12
2019-01-11T07:23:29.806Z,100782.77
2019-01-11T07:28:33.598Z,100782.77
2019-01-11T07:33:37.619Z,100776.88
2019-01-11T07:38:41.411Z,100776.88
2019-01-11T07:43:45.215Z,100755.72
2019-01-11T07:48:49.023Z,100759.00
2019-01-11T07:53:52.854Z,100754.49
2019-01-11T07:58:56.661Z,100755.57
2019-01-11T08:04:00.454Z,100755.57
2019-01-11T08:09:06.157Z,100746.86
2019-01-11T08:14:09.956Z,100738.36
2019-01-11T08:19:15.041Z,100733.41
2019-01-11T08:24:18.998Z,100733.03
2019-01-11T08:29:22.824Z,100745.61
2019-01-11T08:34:26.702Z,100758.54
2019-01-11T08:39:32.516Z,100758.54
2019-01-11T08:44:36.421Z,100775.16
2019-01-11T08:49:40.227Z,100718.19
2019-01-11T08:54:44.215Z,100704.50
2019-01-11T08:59:48.126Z,100702.38
2019-01-11T09:04:52.010Z,100701.19
2019-01-11T09:09:55.853Z,100700.25
2019-01-11T09:14:59.759Z,100705.72
2019-01-11T09:20:03.637Z,100706.76
2019-01-11T09:25:07.546Z,100712.11
2019-01-11T09:30:11.387Z,100709.61
2019-01-11T09:35:15.190Z,100709.75
2019-01-11T09:40:19.042Z,100712.59
2019-01-11T09:45:22.926Z,100713.73
2019-01-11T09:50:26.922Z,100698.94
2019-01-11T09:55:30.740Z,100701.89
2019-01-11T10:00:34.542Z,100695.75
2019-01-11T10:05:38.422Z,100687.22
2019-01-11T10:10:42.319Z,100690.40
2019-01-11T10:15:46.137Z,100677.57
2019-01-11T10:20:51.640Z,100659.06
2019-01-11T10:25:55.432Z,100663.77
2019-01-11T10:31:00.757Z,100651.44
2019-01-11T10:36:04.630Z,100635.89
2019-01-11T10:41:08.454Z,100634.27
2019-01-11T10:46:32.005Z,100631.20
2019-01-11T10:51:35.820Z,100631.50
2019-01-11T10:56:39.618Z,100631.50
2019-01-11T11:01:43.442Z,100620.79
2019-01-11T11:06:47.410Z,100616.80
2019-01-11T11:11:51.202Z,100616.80
2019-01-11T11:16:54.988Z,100600.53
2019-01-11T11:21:58.803Z,100577.06
2019-01-11T11:27:02.580Z,100575.72
2019-01-11T11:32:06.386Z,100575.72
2019-01-11T11:37:11.859Z,100550.30
2019-01-11T11:42:16.902Z,100550.30
2019-01-11T11:47:20.829Z,100528.95
2019-01-11T11:52:24.630Z,100528.95
2019-01-11T11:57:28.495Z,100512.42
2019-01-11T12:02:32.430Z,100512.42
2019-01-11T12:07:36.247Z,100520.88
2019-01-11T12:12:40.057Z,100513.62
2019-01-11T12:17:43.846Z,100500.94
2019-01-11T12:22:47.694Z,100492.05
2019-01-11T12:27:51.480Z,100479.41
2019-01-11T12:32:55.303Z,100479.41
2019-01-11T12:37:59.175Z,100456.78
2019-01-11T12:43:02.979Z,100442.41
2019-01-11T12:48:06.875Z,100429.97
2019-01-11T12:53:10.720Z,100427.28
2019-01-11T12:58:14.525Z,100401.03
2019-01-11T13:03:18.360Z,100398.68
2019-01-11T13:08:22.154Z,100403.89
2019-01-11T13:13:25.982Z,100403.89
2019-01-11T13:18:29.848Z,100374.67
2019-01-11T13:23:33.727Z,100369.64
2019-01-11T13:28:37.657Z,100369.16
2019-01-11T13:33:41.540Z,100370.38
2019-01-11T13:38:45.603Z,100372.81
2019-01-11T13:43:49.446Z,100366.59
2019-01-11T13:48:53.360Z,100364.52
2019-01-11T13:53:57.164Z,100360.62
2019-01-11T13:59:01.008Z,100360.62
2019-01-11T14:04:04.822Z,100349.89
2019-01-11T14:09:09.272Z,100349.89
2019-01-11T14:14:13.535Z,100350.20
2019-01-11T14:19:17.378Z,100341.19
2019-01-11T14:24:21.256Z,100335.97
2019-01-11T14:29:25.056Z,100322.89
2019-01-11T14:34:28.849Z,100322.89
2019-01-11T14:39:32.690Z,100318.35
2019-01-11T14:44:36.528Z,100315.77
2019-01-11T14:49:40.305Z,100315.39
2019-01-11T14:54:44.122Z,100303.69
2019-01-11T14:59:47.904Z,100306.89
2019-01-11T15:04:51.719Z,100303.59
2019-01-11T15:09:55.496Z,100303.59
2019-01-11T15:14:59.295Z,100305.95
2019-01-11T15:20:05.202Z,100301.16
2019-01-11T15:25:09.526Z,100301.16
2019-01-11T15:30:15.910Z,100300.28
2019-01-11T15:35:19.930Z,100300.28
2019-01-11T15:40:26.275Z,100296.16
2019-01-11T15:45:30.109Z,100296.62
2019-01-11T15:50:51.719Z,100301.50
2019-01-11T15:55:58.520Z,100295.52
2019-01-11T16:01:02.432Z,100294.21
2019-01-11T16:06:31.547Z,100299.09
2019-01-11T16:11:41.742Z,100290.55
2019-01-11T16:16:52.109Z,100284.23
2019-01-11T16:21:55.998Z,100284.23
2019-01-11T16:26:59.769Z,100277.39
2019-01-11T16:32:03.589Z,100274.97
2019-01-11T16:37:08.649Z,100263.48
2019-01-11T16:42:12.591Z,100263.48
2019-01-11T16:47:16.390Z,100260.86
2019-01-11T16:52:20.236Z,100268.41
2019-01-11T16:57:24.053Z,100265.13
2019-01-11T17:02:27.871Z,100259.74
2019-01-11T17:07:31.664Z,100258.06
2019-01-11T17:12:41.559Z,100257.67
2019-01-11T17:17:41.208Z,100257.67
2019-01-11T17:22:45.080Z,100262.92
2019-01-11T17:27:48.898Z,100252.20
2019-01-11T17:32:52.721Z,100246.59
2019-01-11T17:37:56.583Z,100247.44
2019-01-11T17:43:00.381Z,100238.30
2019-01-11T17:48:04.206Z,100238.30
2019-01-11T17:53:08.007Z,100252.58
2019-01-11T17:58:11.794Z,100227.55
2019-01-11T18:03:15.621Z,100240.61
2019-01-11T18:08:19.436Z,100247.45
2019-01-11T18:13:23.229Z,100265.86
2019-01-11T18:18:27.027Z,100262.69
2019-01-11T18:23:30.802Z,100255.86
2019-01-11T18:28:34.779Z,100255.86
2019-01-11T18:33:38.603Z,100250.83
2019-01-11T18:38:42.384Z,100252.32
2019-01-11T18:43:46.167Z,100247.52
2019-01-11T18:48:49.991Z,100257.39
2019-01-11T18:53:53.915Z,100260.20
2019-01-11T18:58:57.925Z,100264.05
2019-01-11T19:04:01.724Z,100261.97
2019-01-11T19:09:08.137Z,100261.97
2019-01-11T19:14:11.946Z,100261.96
2019-01-11T19:19:15.898Z,100261.96
2019-01-11T19:24:19.787Z,100267.97
2019-01-11T19:29:23.587Z,100265.28
2019-01-11T19:34:27.389Z,100265.28
2019-01-11T19:39:31.180Z,100268.91
2019-01-11T19:44:35.010Z,100266.83
2019-01-11T19:49:38.842Z,100256.58
2019-01-11T19:54:42.756Z,100270.47
2019-01-11T19:59:46.625Z,100251.81
2019-01-11T20:04:50.441Z,100251.81
2019-01-11T20:09:54.224Z,100263.45
2019-01-11T20:14:58.051Z,100269.53
2019-01-11T20:20:02.259Z,100269.53
2019-01-11T20:25:11.206Z,100280.46
2019-01-11T20:30:17.381Z,100285.86
2019-01-11T20:35:21.177Z,100280.75
2019-01-11T20:40:24.968Z,100276.86
2019-01-11T20:45:28.759Z,100276.73
2019-01-11T20:50:32.546Z,100269.64
2019-01-11T20:55:36.486Z,100269.64
2019-01-11T21:00:40.272Z,100271.81
2019-01-11T21:05:44.067Z,100283.52
2019-01-11T21:10:48.574Z,100288.28
2019-01-11T21:15:52.373Z,100288.28
2019-01-11T21:20:56.207Z,100279.62
2019-01-11T21:25:59.986Z,100288.66
2019-01-11T21:31:03.771Z,100291.33
2019-01-11T21:36:07.582Z,100286.47
2019-01-11T21:41:11.742Z,100286.47
2019-01-11T21:46:15.554Z,100284.43
2019-01-11T21:51:19.342Z,100283.09
2019-01-11T21:56:23.156Z,100286.97
2019-01-11T22:01:26.952Z,100286.97
2019-01-11T22:06:30.752Z,100283.32
2019-01-11T22:11:34.547Z,100283.32
2019-01-11T22:16:38.359Z,100284.06
2019-01-11T22:21:42.140Z,100283.52
2019-01-11T22:26:45.964Z,100283.52
2019-01-11T22:31:49.774Z,100289.02
2019-01-11T22:36:53.588Z,100285.72
2019-01-11T22:41:57.445Z,100285.72
2019-01-11T22:47:01.234Z,100291.45
2019-01-11T22:52:05.043Z,100290.86
2019-01-11T22:57:08.823Z,100290.86
2019-01-11T23:02:51.469Z,100289.91
2019-01-11T23:08:01.513Z,100288.45
2019-01-11T23:13:14.422Z,100290.38
2019-01-11T23:18:23.497Z,100294.17
2019-01-11T23:23:27.308Z,100287.70
2019-01-11T23:28:31.133Z,100291.45
2019-01-11T23:33:34.947Z,100299.14
2019-01-11T23:38:38.745Z,100299.14
2019-01-11T23:43:42.537Z,100293.53
2019-01-11T23:48:46.314Z,100299.33
2019-01-11T23:53:50.766Z,100304.12
2019-01-11T23:58:54.711Z,100297.55
